Pagina principale
METAR-TAF:

METAR-TAF

Aeroporti :

Aeroporto Internazionale Sir Seewoosagur Ramgoolam

Mauritius, Mauritius

latitudine: 20-26S, longitudine: 057-40E, altezza: 55 m

Osservazione

Il bollettino è stato emesso 44 minuti fa, alle 23:00 UTC
Vento 5 kt da nord-ovest
Temperature 20°C
Umidità 94%
Pressione 1019 hPa
Visibilità 10 km o più
Poco nuvoloso ad un'altezza di 1800 ft

METAR: FIMP 302300Z 32005KT 9999 FEW018 20/19 Q1019

Ora: 03:44 (23:44 UTC)

Previsione

Il bollettino è stato emesso 6 ore e 9 minuti fa, alle 17:35 UTC
Previsione valida dal 30 alle 18 UTC al 01 alle 00 UTC
Vento 2 kt da direzioni variabili
Visibilità 10 km o più
Nubi sparse ad un'altezza di 1800 ft
Evoluzione graduale
dal 31 alle 04 UTC al 31 alle 06 UTC
Vento 5 kt da est/nord-est
Evoluzione graduale
dal 31 alle 18 UTC al 31 alle 20 UTC
Vento 2 kt da direzioni variabili

TAF: FIMP 301735Z 3018/0100 VRB02KT 9999 SCT018 BECMG 3104/3106 06005KT BECMG 3118/3120 VRB02KT

Osservazioni e previsioni meteorologiche di più di 4000 aeroporti (messaggi METAR e TAF).

Le stazioni disponibili sono rappresentate dai dischi gialli e rossi sulla carta.

Puntare il mouse per vedere il nome della stazione.

Clicca sopra per visualizzare le osservazioni e previsioni meteorologiche.

Per cambiare la mappa : fare clic sui pulsanti verdi con una croce nera per ingrandire, il pulsante verde con un trattino per diminuire, o sulla freccia verde per le mappe adiacenti.


METAR-TAF: